Hamby, Texas
Current Conditions -  °F | °C
As of 2:52 AM on Friday 19 Dec 2014 (Local Time) from KABI Reporting Station
Overcast Overcast  
Wind Chill: 37°   Ceiling: 600
Heat Index: 42°   Visibility: 8mi
Dew Point: 40°   Wind: 8mph
Humidity: 92%   Direction: 10°N
Pressure: 30.13"   Gusts: NA
Location:  32.4816°N, 99.6841°W
Report Text: KABI 190852Z 01007KT 8SM OVC006 06/04 A3013 RMK AO2 RAE44 SLP195 P0001 60001 T00560044 55010
Loading
Personal Weather Stations






























Interactive Weather Map New forecast layout! Learn more

10-Day Weather Forecast

Advertisements
Track Severe Weather on mobile